sensor_id;sensor_type;location;lat;lon;timestamp;P1;durP1;ratioP1;P2;durP2;ratioP2
12768;SDS011;6448;48.916;8.990;2023-03-08T00:00:23;3.88;;;3.58;;
12768;SDS011;6448;48.916;8.990;2023-03-08T00:01:25;3.90;;;3.50;;
12768;SDS011;6448;48.916;8.990;2023-03-08T00:02:27;3.90;;;3.60;;
12768;SDS011;6448;48.916;8.990;2023-03-08T00:03:28;3.90;;;3.60;;
12768;SDS011;6448;48.916;8.990;2023-03-08T00:04:29;3.70;;;3.40;;
12768;SDS011;6448;48.916;8.990;2023-03-08T00:05:31;3.85;;;3.55;;
12768;SDS011;6448;48.916;8.990;2023-03-08T00:06:32;3.72;;;3.42;;
12768;SDS011;6448;48.916;8.990;2023-03-08T00:07:35;3.93;;;3.60;;
12768;SDS011;6448;48.916;8.990;2023-03-08T00:08:35;3.75;;;3.45;;
12768;SDS011;6448;48.916;8.990;2023-03-08T00:09:37;3.90;;;3.60;;
12768;SDS011;6448;48.916;8.990;2023-03-08T00:10:38;3.78;;;3.47;;
12768;SDS011;6448;48.916;8.990;2023-03-08T00:11:40;3.70;;;3.40;;
12768;SDS011;6448;48.916;8.990;2023-03-08T00:12:41;4.03;;;3.72;;
12768;SDS011;6448;48.916;8.990;2023-03-08T00:13:42;3.70;;;3.40;;
12768;SDS011;6448;48.916;8.990;2023-03-08T00:14:43;3.90;;;3.60;;
12768;SDS011;6448;48.916;8.990;2023-03-08T00:15:45;3.70;;;3.40;;
12768;SDS011;6448;48.916;8.990;2023-03-08T00:16:46;3.72;;;3.42;;
12768;SDS011;6448;48.916;8.990;2023-03-08T00:17:49;3.47;;;3.17;;
12768;SDS011;6448;48.916;8.990;2023-03-08T00:18:50;4.00;;;3.70;;
12768;SDS011;6448;48.916;8.990;2023-03-08T00:19:52;3.92;;;3.63;;
12768;SDS011;6448;48.916;8.990;2023-03-08T00:20:57;3.70;;;3.40;;
12768;SDS011;6448;48.916;8.990;2023-03-08T00:21:59;3.90;;;3.60;;
12768;SDS011;6448;48.916;8.990;2023-03-08T00:23:00;3.75;;;3.45;;
12768;SDS011;6448;48.916;8.990;2023-03-08T00:24:02;3.90;;;3.60;;
12768;SDS011;6448;48.916;8.990;2023-03-08T00:25:04;3.72;;;3.42;;
12768;SDS011;6448;48.916;8.990;2023-03-08T00:26:08;3.92;;;3.63;;
12768;SDS011;6448;48.916;8.990;2023-03-08T00:27:09;3.83;;;3.53;;
12768;SDS011;6448;48.916;8.990;2023-03-08T00:28:13;3.97;;;3.67;;
12768;SDS011;6448;48.916;8.990;2023-03-08T00:29:14;4.10;;;3.80;;
12768;SDS011;6448;48.916;8.990;2023-03-08T00:30:16;3.50;;;3.20;;
12768;SDS011;6448;48.916;8.990;2023-03-08T00:31:17;3.80;;;3.50;;
12768;SDS011;6448;48.916;8.990;2023-03-08T00:32:18;3.70;;;3.40;;
12768;SDS011;6448;48.916;8.990;2023-03-08T00:33:23;3.90;;;3.60;;
12768;SDS011;6448;48.916;8.990;2023-03-08T00:34:25;3.75;;;3.45;;
12768;SDS011;6448;48.916;8.990;2023-03-08T00:35:25;3.83;;;3.53;;
12768;SDS011;6448;48.916;8.990;2023-03-08T00:36:27;4.00;;;3.70;;
12768;SDS011;6448;48.916;8.990;2023-03-08T00:37:28;4.07;;;3.78;;
12768;SDS011;6448;48.916;8.990;2023-03-08T00:38:30;3.95;;;3.65;;
12768;SDS011;6448;48.916;8.990;2023-03-08T00:39:32;3.83;;;3.53;;
12768;SDS011;6448;48.916;8.990;2023-03-08T00:40:34;3.95;;;3.65;;
12768;SDS011;6448;48.916;8.990;2023-03-08T00:41:37;3.70;;;3.40;;
12768;SDS011;6448;48.916;8.990;2023-03-08T00:42:39;3.63;;;3.40;;
12768;SDS011;6448;48.916;8.990;2023-03-08T00:43:40;4.03;;;3.72;;
12768;SDS011;6448;48.916;8.990;2023-03-08T00:44:42;4.20;;;3.80;;
12768;SDS011;6448;48.916;8.990;2023-03-08T00:45:44;3.92;;;3.63;;
12768;SDS011;6448;48.916;8.990;2023-03-08T00:46:45;3.72;;;3.42;;
12768;SDS011;6448;48.916;8.990;2023-03-08T00:47:47;4.05;;;3.65;;
12768;SDS011;6448;48.916;8.990;2023-03-08T00:48:50;3.63;;;3.33;;
12768;SDS011;6448;48.916;8.990;2023-03-08T00:49:51;3.90;;;3.60;;
12768;SDS011;6448;48.916;8.990;2023-03-08T00:50:54;3.47;;;3.20;;
12768;SDS011;6448;48.916;8.990;2023-03-08T00:51:55;4.05;;;3.58;;
12768;SDS011;6448;48.916;8.990;2023-03-08T00:52:57;3.80;;;3.50;;
12768;SDS011;6448;48.916;8.990;2023-03-08T00:53:57;3.80;;;3.50;;
12768;SDS011;6448;48.916;8.990;2023-03-08T00:54:59;3.70;;;3.40;;
12768;SDS011;6448;48.916;8.990;2023-03-08T00:56:00;3.85;;;3.55;;
12768;SDS011;6448;48.916;8.990;2023-03-08T00:57:04;3.83;;;3.53;;
12768;SDS011;6448;48.916;8.990;2023-03-08T00:58:05;3.90;;;3.60;;
12768;SDS011;6448;48.916;8.990;2023-03-08T00:59:08;3.60;;;3.30;;
12768;SDS011;6448;48.916;8.990;2023-03-08T01:00:10;3.80;;;3.50;;
12768;SDS011;6448;48.916;8.990;2023-03-08T01:01:14;3.80;;;3.50;;
12768;SDS011;6448;48.916;8.990;2023-03-08T01:02:16;3.67;;;3.38;;
12768;SDS011;6448;48.916;8.990;2023-03-08T01:03:18;3.83;;;3.53;;
12768;SDS011;6448;48.916;8.990;2023-03-08T01:04:23;3.90;;;3.60;;
12768;SDS011;6448;48.916;8.990;2023-03-08T01:05:25;4.10;;;3.80;;
12768;SDS011;6448;48.916;8.990;2023-03-08T01:06:25;4.00;;;3.70;;
12768;SDS011;6448;48.916;8.990;2023-03-08T01:07:27;4.17;;;3.87;;
12768;SDS011;6448;48.916;8.990;2023-03-08T01:08:29;3.80;;;3.50;;
12768;SDS011;6448;48.916;8.990;2023-03-08T01:09:30;4.00;;;3.70;;
12768;SDS011;6448;48.916;8.990;2023-03-08T01:10:31;4.10;;;3.80;;
12768;SDS011;6448;48.916;8.990;2023-03-08T01:11:33;3.90;;;3.60;;
12768;SDS011;6448;48.916;8.990;2023-03-08T01:12:35;4.50;;;4.10;;
12768;SDS011;6448;48.916;8.990;2023-03-08T01:13:37;4.15;;;3.80;;
12768;SDS011;6448;48.916;8.990;2023-03-08T01:14:41;4.00;;;3.70;;
12768;SDS011;6448;48.916;8.990;2023-03-08T01:15:42;4.30;;;4.00;;
12768;SDS011;6448;48.916;8.990;2023-03-08T01:16:43;4.18;;;3.85;;
12768;SDS011;6448;48.916;8.990;2023-03-08T01:17:46;4.40;;;4.00;;
12768;SDS011;6448;48.916;8.990;2023-03-08T01:18:47;4.13;;;3.78;;
12768;SDS011;6448;48.916;8.990;2023-03-08T01:19:50;4.00;;;3.70;;
12768;SDS011;6448;48.916;8.990;2023-03-08T01:20:56;3.90;;;3.60;;
12768;SDS011;6448;48.916;8.990;2023-03-08T01:21:59;4.55;;;4.15;;
12768;SDS011;6448;48.916;8.990;2023-03-08T01:22:59;4.60;;;4.20;;
12768;SDS011;6448;48.916;8.990;2023-03-08T01:24:01;4.45;;;4.05;;
12768;SDS011;6448;48.916;8.990;2023-03-08T01:25:03;4.80;;;4.40;;
12768;SDS011;6448;48.916;8.990;2023-03-08T01:26:05;4.88;;;4.47;;
12768;SDS011;6448;48.916;8.990;2023-03-08T01:27:07;4.78;;;4.38;;
12768;SDS011;6448;48.916;8.990;2023-03-08T01:28:09;4.70;;;4.30;;
12768;SDS011;6448;48.916;8.990;2023-03-08T01:29:10;4.93;;;4.53;;
12768;SDS011;6448;48.916;8.990;2023-03-08T01:30:12;4.97;;;4.57;;
12768;SDS011;6448;48.916;8.990;2023-03-08T01:31:14;4.57;;;4.18;;
12768;SDS011;6448;48.916;8.990;2023-03-08T01:32:18;4.85;;;4.45;;
12768;SDS011;6448;48.916;8.990;2023-03-08T01:33:19;5.33;;;4.83;;
12768;SDS011;6448;48.916;8.990;2023-03-08T01:34:23;4.55;;;4.15;;
12768;SDS011;6448;48.916;8.990;2023-03-08T01:35:26;4.60;;;4.20;;
12768;SDS011;6448;48.916;8.990;2023-03-08T01:36:27;4.80;;;4.40;;
12768;SDS011;6448;48.916;8.990;2023-03-08T01:37:29;5.30;;;4.80;;
12768;SDS011;6448;48.916;8.990;2023-03-08T01:38:30;5.13;;;4.63;;
12768;SDS011;6448;48.916;8.990;2023-03-08T01:39:33;5.15;;;4.70;;
12768;SDS011;6448;48.916;8.990;2023-03-08T01:40:34;4.93;;;4.53;;
12768;SDS011;6448;48.916;8.990;2023-03-08T01:41:35;5.30;;;4.80;;
12768;SDS011;6448;48.916;8.990;2023-03-08T01:42:37;5.10;;;4.70;;
12768;SDS011;6448;48.916;8.990;2023-03-08T01:43:39;4.80;;;4.40;;
12768;SDS011;6448;48.916;8.990;2023-03-08T01:44:48;4.90;;;4.50;;
12768;SDS011;6448;48.916;8.990;2023-03-08T01:46:03;5.10;;;4.70;;
12768;SDS011;6448;48.916;8.990;2023-03-08T01:47:07;4.90;;;4.50;;
12768;SDS011;6448;48.916;8.990;2023-03-08T01:48:20;5.10;;;4.70;;
12768;SDS011;6448;48.916;8.990;2023-03-08T01:49:33;5.60;;;5.10;;
12768;SDS011;6448;48.916;8.990;2023-03-08T01:50:39;5.03;;;4.63;;
12768;SDS011;6448;48.916;8.990;2023-03-08T01:51:41;5.38;;;4.97;;
12768;SDS011;6448;48.916;8.990;2023-03-08T01:52:47;5.45;;;4.95;;
12768;SDS011;6448;48.916;8.990;2023-03-08T01:53:53;5.10;;;4.70;;
12768;SDS011;6448;48.916;8.990;2023-03-08T01:54:56;5.22;;;4.82;;
12768;SDS011;6448;48.916;8.990;2023-03-08T01:56:02;5.30;;;4.90;;
12768;SDS011;6448;48.916;8.990;2023-03-08T01:57:04;5.13;;;4.72;;
12768;SDS011;6448;48.916;8.990;2023-03-08T01:58:09;5.18;;;4.78;;
12768;SDS011;6448;48.916;8.990;2023-03-08T01:59:10;5.20;;;4.80;;
12768;SDS011;6448;48.916;8.990;2023-03-08T02:00:14;5.47;;;4.97;;
12768;SDS011;6448;48.916;8.990;2023-03-08T02:01:17;5.63;;;5.13;;
12768;SDS011;6448;48.916;8.990;2023-03-08T02:02:22;5.43;;;4.95;;
12768;SDS011;6448;48.916;8.990;2023-03-08T02:03:26;5.38;;;4.97;;
12768;SDS011;6448;48.916;8.990;2023-03-08T02:04:28;5.35;;;4.88;;
12768;SDS011;6448;48.916;8.990;2023-03-08T02:05:29;5.47;;;4.97;;
12768;SDS011;6448;48.916;8.990;2023-03-08T02:06:40;5.25;;;4.85;;
12768;SDS011;6448;48.916;8.990;2023-03-08T02:07:44;5.70;;;5.20;;
12768;SDS011;6448;48.916;8.990;2023-03-08T02:08:45;5.70;;;5.20;;
12768;SDS011;6448;48.916;8.990;2023-03-08T02:09:47;5.70;;;5.20;;
12768;SDS011;6448;48.916;8.990;2023-03-08T02:10:49;5.22;;;4.78;;
12768;SDS011;6448;48.916;8.990;2023-03-08T02:11:51;5.65;;;5.15;;
12768;SDS011;6448;48.916;8.990;2023-03-08T02:12:54;5.50;;;5.00;;
12768;SDS011;6448;48.916;8.990;2023-03-08T02:13:56;5.68;;;5.28;;
12768;SDS011;6448;48.916;8.990;2023-03-08T02:14:58;5.80;;;5.30;;
12768;SDS011;6448;48.916;8.990;2023-03-08T02:16:03;6.20;;;5.70;;
12768;SDS011;6448;48.916;8.990;2023-03-08T02:17:05;6.00;;;5.50;;
12768;SDS011;6448;48.916;8.990;2023-03-08T02:18:07;5.90;;;5.40;;
12768;SDS011;6448;48.916;8.990;2023-03-08T02:19:09;6.20;;;5.60;;
12768;SDS011;6448;48.916;8.990;2023-03-08T02:20:16;6.25;;;5.75;;
12768;SDS011;6448;48.916;8.990;2023-03-08T02:21:21;6.10;;;5.60;;
12768;SDS011;6448;48.916;8.990;2023-03-08T02:22:25;6.35;;;5.63;;
12768;SDS011;6448;48.916;8.990;2023-03-08T02:23:27;6.35;;;5.85;;
12768;SDS011;6448;48.916;8.990;2023-03-08T02:24:31;6.50;;;6.00;;
12768;SDS011;6448;48.916;8.990;2023-03-08T02:25:31;5.97;;;5.47;;
12768;SDS011;6448;48.916;8.990;2023-03-08T02:26:34;6.30;;;5.80;;
12768;SDS011;6448;48.916;8.990;2023-03-08T02:27:39;6.30;;;5.70;;
12768;SDS011;6448;48.916;8.990;2023-03-08T02:28:40;6.82;;;6.22;;
12768;SDS011;6448;48.916;8.990;2023-03-08T02:29:41;6.47;;;5.90;;
12768;SDS011;6448;48.916;8.990;2023-03-08T02:30:43;6.80;;;6.20;;
12768;SDS011;6448;48.916;8.990;2023-03-08T02:31:44;6.57;;;5.97;;
12768;SDS011;6448;48.916;8.990;2023-03-08T02:32:46;6.57;;;6.07;;
12768;SDS011;6448;48.916;8.990;2023-03-08T02:33:46;6.47;;;5.97;;
12768;SDS011;6448;48.916;8.990;2023-03-08T02:34:48;6.22;;;5.72;;
12768;SDS011;6448;48.916;8.990;2023-03-08T02:35:49;6.30;;;5.80;;
12768;SDS011;6448;48.916;8.990;2023-03-08T02:36:51;5.97;;;5.47;;
12768;SDS011;6448;48.916;8.990;2023-03-08T02:37:52;6.75;;;6.20;;
12768;SDS011;6448;48.916;8.990;2023-03-08T02:38:55;6.47;;;5.88;;
12768;SDS011;6448;48.916;8.990;2023-03-08T02:39:57;6.80;;;6.20;;
12768;SDS011;6448;48.916;8.990;2023-03-08T02:40:57;6.53;;;6.00;;
12768;SDS011;6448;48.916;8.990;2023-03-08T02:41:59;6.63;;;6.03;;
12768;SDS011;6448;48.916;8.990;2023-03-08T02:43:00;6.30;;;5.80;;
12768;SDS011;6448;48.916;8.990;2023-03-08T02:44:02;6.88;;;6.28;;
12768;SDS011;6448;48.916;8.990;2023-03-08T02:45:03;6.57;;;5.97;;
12768;SDS011;6448;48.916;8.990;2023-03-08T02:46:06;6.75;;;6.15;;
12768;SDS011;6448;48.916;8.990;2023-03-08T02:47:10;6.40;;;5.90;;
12768;SDS011;6448;48.916;8.990;2023-03-08T02:48:12;6.75;;;6.18;;
12768;SDS011;6448;48.916;8.990;2023-03-08T02:49:14;6.80;;;6.20;;
12768;SDS011;6448;48.916;8.990;2023-03-08T02:50:16;6.70;;;6.10;;
12768;SDS011;6448;48.916;8.990;2023-03-08T02:51:18;6.45;;;5.85;;
12768;SDS011;6448;48.916;8.990;2023-03-08T02:52:20;6.60;;;6.00;;
12768;SDS011;6448;48.916;8.990;2023-03-08T02:53:24;6.88;;;6.28;;
12768;SDS011;6448;48.916;8.990;2023-03-08T02:54:27;6.60;;;6.00;;
12768;SDS011;6448;48.916;8.990;2023-03-08T02:55:28;6.57;;;6.07;;
12768;SDS011;6448;48.916;8.990;2023-03-08T02:56:30;6.50;;;6.00;;
12768;SDS011;6448;48.916;8.990;2023-03-08T02:57:31;6.50;;;5.90;;
12768;SDS011;6448;48.916;8.990;2023-03-08T02:58:34;6.75;;;6.15;;
12768;SDS011;6448;48.916;8.990;2023-03-08T02:59:36;6.82;;;6.22;;
12768;SDS011;6448;48.916;8.990;2023-03-08T03:00:37;6.18;;;5.68;;
12768;SDS011;6448;48.916;8.990;2023-03-08T03:01:39;6.72;;;6.13;;
12768;SDS011;6448;48.916;8.990;2023-03-08T03:02:40;6.43;;;5.93;;
12768;SDS011;6448;48.916;8.990;2023-03-08T03:03:42;6.30;;;5.70;;
12768;SDS011;6448;48.916;8.990;2023-03-08T03:04:42;6.50;;;5.90;;
12768;SDS011;6448;48.916;8.990;2023-03-08T03:05:45;6.50;;;6.00;;
12768;SDS011;6448;48.916;8.990;2023-03-08T03:06:51;6.68;;;6.18;;
12768;SDS011;6448;48.916;8.990;2023-03-08T03:07:54;6.43;;;5.82;;
12768;SDS011;6448;48.916;8.990;2023-03-08T03:08:57;6.80;;;6.20;;
12768;SDS011;6448;48.916;8.990;2023-03-08T03:10:01;6.15;;;5.65;;
12768;SDS011;6448;48.916;8.990;2023-03-08T03:11:09;6.70;;;6.10;;
12768;SDS011;6448;48.916;8.990;2023-03-08T03:12:11;7.07;;;6.47;;
12768;SDS011;6448;48.916;8.990;2023-03-08T03:13:14;6.57;;;5.97;;
12768;SDS011;6448;48.916;8.990;2023-03-08T03:14:16;6.70;;;6.10;;
12768;SDS011;6448;48.916;8.990;2023-03-08T03:15:19;6.60;;;6.10;;
12768;SDS011;6448;48.916;8.990;2023-03-08T03:16:25;6.38;;;5.85;;
12768;SDS011;6448;48.916;8.990;2023-03-08T03:17:28;6.80;;;6.20;;
12768;SDS011;6448;48.916;8.990;2023-03-08T03:18:29;6.55;;;5.95;;
12768;SDS011;6448;48.916;8.990;2023-03-08T03:19:30;6.18;;;5.68;;
12768;SDS011;6448;48.916;8.990;2023-03-08T03:20:31;6.78;;;6.18;;
12768;SDS011;6448;48.916;8.990;2023-03-08T03:21:34;7.07;;;6.47;;
12768;SDS011;6448;48.916;8.990;2023-03-08T03:22:34;6.57;;;6.00;;
12768;SDS011;6448;48.916;8.990;2023-03-08T03:23:39;7.03;;;6.43;;
12768;SDS011;6448;48.916;8.990;2023-03-08T03:24:41;6.72;;;6.22;;
12768;SDS011;6448;48.916;8.990;2023-03-08T03:25:44;6.40;;;5.80;;
12768;SDS011;6448;48.916;8.990;2023-03-08T03:26:48;6.78;;;6.18;;
12768;SDS011;6448;48.916;8.990;2023-03-08T03:27:53;6.20;;;5.70;;
12768;SDS011;6448;48.916;8.990;2023-03-08T03:28:54;6.30;;;5.70;;
12768;SDS011;6448;48.916;8.990;2023-03-08T03:29:58;6.45;;;5.90;;
12768;SDS011;6448;48.916;8.990;2023-03-08T03:30:59;6.63;;;6.03;;
12768;SDS011;6448;48.916;8.990;2023-03-08T03:32:02;6.80;;;6.20;;
12768;SDS011;6448;48.916;8.990;2023-03-08T03:33:03;6.50;;;6.00;;
12768;SDS011;6448;48.916;8.990;2023-03-08T03:34:06;6.70;;;6.10;;
12768;SDS011;6448;48.916;8.990;2023-03-08T03:35:08;6.30;;;5.80;;
12768;SDS011;6448;48.916;8.990;2023-03-08T03:36:11;6.60;;;6.00;;
12768;SDS011;6448;48.916;8.990;2023-03-08T03:37:13;6.40;;;5.88;;
12768;SDS011;6448;48.916;8.990;2023-03-08T03:38:15;6.55;;;5.95;;
12768;SDS011;6448;48.916;8.990;2023-03-08T03:39:18;6.70;;;6.10;;
12768;SDS011;6448;48.916;8.990;2023-03-08T03:40:22;6.30;;;5.80;;
12768;SDS011;6448;48.916;8.990;2023-03-08T03:41:29;6.40;;;5.80;;
12768;SDS011;6448;48.916;8.990;2023-03-08T03:42:37;6.15;;;5.65;;
12768;SDS011;6448;48.916;8.990;2023-03-08T03:43:45;6.43;;;5.93;;
12768;SDS011;6448;48.916;8.990;2023-03-08T03:44:47;6.63;;;6.03;;
12768;SDS011;6448;48.916;8.990;2023-03-08T03:45:53;6.22;;;5.65;;
12768;SDS011;6448;48.916;8.990;2023-03-08T03:46:57;6.43;;;5.93;;
12768;SDS011;6448;48.916;8.990;2023-03-08T03:47:59;6.63;;;6.03;;
12768;SDS011;6448;48.916;8.990;2023-03-08T03:49:02;5.95;;;5.45;;
12768;SDS011;6448;48.916;8.990;2023-03-08T03:50:08;6.22;;;5.70;;
12768;SDS011;6448;48.916;8.990;2023-03-08T03:51:27;6.35;;;5.85;;
12768;SDS011;6448;48.916;8.990;2023-03-08T03:52:52;6.22;;;5.70;;
12768;SDS011;6448;48.916;8.990;2023-03-08T03:53:53;5.93;;;5.43;;
12768;SDS011;6448;48.916;8.990;2023-03-08T03:54:55;6.07;;;5.57;;
12768;SDS011;6448;48.916;8.990;2023-03-08T03:56:01;5.80;;;5.30;;
12768;SDS011;6448;48.916;8.990;2023-03-08T03:57:05;6.07;;;5.57;;
12768;SDS011;6448;48.916;8.990;2023-03-08T03:58:10;5.82;;;5.32;;
12768;SDS011;6448;48.916;8.990;2023-03-08T03:59:11;6.18;;;5.68;;
12768;SDS011;6448;48.916;8.990;2023-03-08T04:00:13;6.20;;;5.60;;
12768;SDS011;6448;48.916;8.990;2023-03-08T04:01:19;6.20;;;5.60;;
12768;SDS011;6448;48.916;8.990;2023-03-08T04:02:23;6.20;;;5.70;;
12768;SDS011;6448;48.916;8.990;2023-03-08T04:03:30;6.38;;;5.78;;
12768;SDS011;6448;48.916;8.990;2023-03-08T04:04:32;6.00;;;5.50;;
12768;SDS011;6448;48.916;8.990;2023-03-08T04:05:32;5.90;;;5.40;;
12768;SDS011;6448;48.916;8.990;2023-03-08T04:06:34;6.00;;;5.50;;
12768;SDS011;6448;48.916;8.990;2023-03-08T04:07:37;6.07;;;5.57;;
12768;SDS011;6448;48.916;8.990;2023-03-08T04:08:40;5.85;;;5.35;;
12768;SDS011;6448;48.916;8.990;2023-03-08T04:09:43;6.10;;;5.60;;
12768;SDS011;6448;48.916;8.990;2023-03-08T04:10:49;6.15;;;5.57;;
12768;SDS011;6448;48.916;8.990;2023-03-08T04:11:50;5.97;;;5.47;;
12768;SDS011;6448;48.916;8.990;2023-03-08T04:12:55;6.45;;;5.90;;
12768;SDS011;6448;48.916;8.990;2023-03-08T04:13:56;5.95;;;5.45;;
12768;SDS011;6448;48.916;8.990;2023-03-08T04:15:00;5.93;;;5.43;;
12768;SDS011;6448;48.916;8.990;2023-03-08T04:16:07;6.38;;;5.88;;
12768;SDS011;6448;48.916;8.990;2023-03-08T04:17:11;6.32;;;5.82;;
12768;SDS011;6448;48.916;8.990;2023-03-08T04:18:16;6.10;;;5.60;;
12768;SDS011;6448;48.916;8.990;2023-03-08T04:19:19;5.88;;;5.38;;
12768;SDS011;6448;48.916;8.990;2023-03-08T04:20:24;6.07;;;5.57;;
12768;SDS011;6448;48.916;8.990;2023-03-08T04:21:31;5.93;;;5.43;;
12768;SDS011;6448;48.916;8.990;2023-03-08T04:22:34;6.20;;;5.70;;
12768;SDS011;6448;48.916;8.990;2023-03-08T04:23:43;6.18;;;5.68;;
12768;SDS011;6448;48.916;8.990;2023-03-08T04:24:43;5.85;;;5.35;;
12768;SDS011;6448;48.916;8.990;2023-03-08T04:25:50;6.05;;;5.55;;
12768;SDS011;6448;48.916;8.990;2023-03-08T04:26:53;6.45;;;5.85;;
12768;SDS011;6448;48.916;8.990;2023-03-08T04:27:57;6.25;;;5.72;;
12768;SDS011;6448;48.916;8.990;2023-03-08T04:28:58;6.43;;;5.93;;
12768;SDS011;6448;48.916;8.990;2023-03-08T04:30:05;6.32;;;5.72;;
12768;SDS011;6448;48.916;8.990;2023-03-08T04:31:10;6.50;;;5.90;;
12768;SDS011;6448;48.916;8.990;2023-03-08T04:32:13;6.10;;;5.60;;
12768;SDS011;6448;48.916;8.990;2023-03-08T04:33:25;6.43;;;5.93;;
12768;SDS011;6448;48.916;8.990;2023-03-08T04:34:27;6.43;;;5.85;;
12768;SDS011;6448;48.916;8.990;2023-03-08T04:35:28;6.20;;;5.70;;
12768;SDS011;6448;48.916;8.990;2023-03-08T04:36:30;6.00;;;5.50;;
12768;SDS011;6448;48.916;8.990;2023-03-08T04:37:33;6.20;;;5.60;;
12768;SDS011;6448;48.916;8.990;2023-03-08T04:38:42;6.47;;;5.88;;
12768;SDS011;6448;48.916;8.990;2023-03-08T04:39:45;6.05;;;5.53;;
12768;SDS011;6448;48.916;8.990;2023-03-08T04:40:48;6.30;;;5.70;;
12768;SDS011;6448;48.916;8.990;2023-03-08T04:42:11;5.60;;;5.20;;
12768;SDS011;6448;48.916;8.990;2023-03-08T04:43:14;6.30;;;5.80;;
12768;SDS011;6448;48.916;8.990;2023-03-08T04:44:14;5.80;;;5.30;;
12768;SDS011;6448;48.916;8.990;2023-03-08T04:45:20;5.90;;;5.40;;
12768;SDS011;6448;48.916;8.990;2023-03-08T04:46:23;6.13;;;5.63;;
12768;SDS011;6448;48.916;8.990;2023-03-08T04:47:26;5.88;;;5.38;;
12768;SDS011;6448;48.916;8.990;2023-03-08T04:48:27;6.07;;;5.57;;
12768;SDS011;6448;48.916;8.990;2023-03-08T04:49:29;6.13;;;5.63;;
12768;SDS011;6448;48.916;8.990;2023-03-08T04:50:34;6.88;;;6.28;;
12768;SDS011;6448;48.916;8.990;2023-03-08T04:51:38;6.55;;;5.95;;
12768;SDS011;6448;48.916;8.990;2023-03-08T04:52:41;6.18;;;5.68;;
12768;SDS011;6448;48.916;8.990;2023-03-08T04:53:44;6.35;;;5.82;;
12768;SDS011;6448;48.916;8.990;2023-03-08T04:54:45;6.22;;;5.72;;
12768;SDS011;6448;48.916;8.990;2023-03-08T04:55:52;6.20;;;5.70;;
12768;SDS011;6448;48.916;8.990;2023-03-08T04:56:53;6.18;;;5.60;;
12768;SDS011;6448;48.916;8.990;2023-03-08T04:57:58;6.20;;;5.60;;
12768;SDS011;6448;48.916;8.990;2023-03-08T04:59:02;6.40;;;5.80;;
12768;SDS011;6448;48.916;8.990;2023-03-08T05:00:05;6.40;;;5.90;;
12768;SDS011;6448;48.916;8.990;2023-03-08T05:01:12;5.63;;;5.15;;
12768;SDS011;6448;48.916;8.990;2023-03-08T05:02:15;6.20;;;5.70;;
12768;SDS011;6448;48.916;8.990;2023-03-08T05:03:18;6.25;;;5.75;;
12768;SDS011;6448;48.916;8.990;2023-03-08T05:04:20;6.20;;;5.65;;
12768;SDS011;6448;48.916;8.990;2023-03-08T05:05:21;6.45;;;5.95;;
12768;SDS011;6448;48.916;8.990;2023-03-08T05:06:23;6.30;;;5.80;;
12768;SDS011;6448;48.916;8.990;2023-03-08T05:07:26;6.40;;;5.90;;
12768;SDS011;6448;48.916;8.990;2023-03-08T05:08:29;6.90;;;6.30;;
12768;SDS011;6448;48.916;8.990;2023-03-08T05:09:30;6.90;;;6.30;;
12768;SDS011;6448;48.916;8.990;2023-03-08T05:10:32;6.32;;;5.82;;
12768;SDS011;6448;48.916;8.990;2023-03-08T05:11:33;7.00;;;6.40;;
12768;SDS011;6448;48.916;8.990;2023-03-08T05:12:34;6.47;;;5.97;;
12768;SDS011;6448;48.916;8.990;2023-03-08T05:13:36;7.03;;;6.43;;
12768;SDS011;6448;48.916;8.990;2023-03-08T05:14:41;6.78;;;6.18;;
12768;SDS011;6448;48.916;8.990;2023-03-08T05:15:43;6.40;;;5.80;;
12768;SDS011;6448;48.916;8.990;2023-03-08T05:16:44;6.60;;;6.00;;
12768;SDS011;6448;48.916;8.990;2023-03-08T05:17:48;6.57;;;5.97;;
12768;SDS011;6448;48.916;8.990;2023-03-08T05:18:50;7.10;;;6.50;;
12768;SDS011;6448;48.916;8.990;2023-03-08T05:19:56;6.50;;;6.00;;
12768;SDS011;6448;48.916;8.990;2023-03-08T05:21:05;6.57;;;5.97;;
12768;SDS011;6448;48.916;8.990;2023-03-08T05:22:09;6.65;;;6.05;;
12768;SDS011;6448;48.916;8.990;2023-03-08T05:23:17;6.50;;;5.90;;
12768;SDS011;6448;48.916;8.990;2023-03-08T05:24:19;6.50;;;5.90;;
12768;SDS011;6448;48.916;8.990;2023-03-08T05:25:21;6.93;;;6.32;;
12768;SDS011;6448;48.916;8.990;2023-03-08T05:26:22;6.60;;;6.00;;
12768;SDS011;6448;48.916;8.990;2023-03-08T05:27:25;6.60;;;6.00;;
12768;SDS011;6448;48.916;8.990;2023-03-08T05:28:27;6.60;;;5.95;;
12768;SDS011;6448;48.916;8.990;2023-03-08T05:29:30;6.50;;;6.00;;
12768;SDS011;6448;48.916;8.990;2023-03-08T05:30:35;6.43;;;5.85;;
12768;SDS011;6448;48.916;8.990;2023-03-08T05:31:37;6.20;;;5.70;;
12768;SDS011;6448;48.916;8.990;2023-03-08T05:32:41;6.15;;;5.65;;
12768;SDS011;6448;48.916;8.990;2023-03-08T05:33:43;5.82;;;5.32;;
12768;SDS011;6448;48.916;8.990;2023-03-08T05:34:47;5.97;;;5.47;;
12768;SDS011;6448;48.916;8.990;2023-03-08T05:35:57;6.00;;;5.50;;
12768;SDS011;6448;48.916;8.990;2023-03-08T05:36:59;6.20;;;5.70;;
12768;SDS011;6448;48.916;8.990;2023-03-08T05:38:01;5.82;;;5.32;;
12768;SDS011;6448;48.916;8.990;2023-03-08T05:39:03;6.10;;;5.60;;
12768;SDS011;6448;48.916;8.990;2023-03-08T05:40:14;5.75;;;5.25;;
12768;SDS011;6448;48.916;8.990;2023-03-08T05:41:17;5.70;;;5.20;;
12768;SDS011;6448;48.916;8.990;2023-03-08T05:42:23;5.40;;;4.97;;
12768;SDS011;6448;48.916;8.990;2023-03-08T05:43:24;6.00;;;5.50;;
12768;SDS011;6448;48.916;8.990;2023-03-08T05:44:26;6.00;;;5.50;;
12768;SDS011;6448;48.916;8.990;2023-03-08T05:45:27;5.70;;;5.20;;
12768;SDS011;6448;48.916;8.990;2023-03-08T05:46:30;6.07;;;5.57;;
12768;SDS011;6448;48.916;8.990;2023-03-08T05:47:32;5.93;;;5.43;;
12768;SDS011;6448;48.916;8.990;2023-03-08T05:48:34;5.60;;;5.18;;
12768;SDS011;6448;48.916;8.990;2023-03-08T05:49:35;6.05;;;5.50;;
12768;SDS011;6448;48.916;8.990;2023-03-08T05:50:39;5.40;;;5.00;;
12768;SDS011;6448;48.916;8.990;2023-03-08T05:51:39;6.13;;;5.60;;
12768;SDS011;6448;48.916;8.990;2023-03-08T05:52:41;6.10;;;5.60;;
12768;SDS011;6448;48.916;8.990;2023-03-08T05:53:44;6.00;;;5.50;;
12768;SDS011;6448;48.916;8.990;2023-03-08T05:54:48;5.85;;;5.35;;
12768;SDS011;6448;48.916;8.990;2023-03-08T05:55:52;5.88;;;5.38;;
12768;SDS011;6448;48.916;8.990;2023-03-08T05:56:55;6.15;;;5.65;;
12768;SDS011;6448;48.916;8.990;2023-03-08T05:57:59;5.75;;;5.28;;
12768;SDS011;6448;48.916;8.990;2023-03-08T05:59:01;6.00;;;5.50;;
12768;SDS011;6448;48.916;8.990;2023-03-08T06:00:03;5.88;;;5.38;;
12768;SDS011;6448;48.916;8.990;2023-03-08T06:01:17;5.90;;;5.40;;
12768;SDS011;6448;48.916;8.990;2023-03-08T06:02:21;6.30;;;5.78;;
12768;SDS011;6448;48.916;8.990;2023-03-08T06:03:26;6.00;;;5.50;;
12768;SDS011;6448;48.916;8.990;2023-03-08T06:04:28;6.03;;;5.53;;
12768;SDS011;6448;48.916;8.990;2023-03-08T06:05:29;5.93;;;5.43;;
12768;SDS011;6448;48.916;8.990;2023-03-08T06:06:32;5.80;;;5.30;;
12768;SDS011;6448;48.916;8.990;2023-03-08T06:07:35;5.30;;;4.90;;
12768;SDS011;6448;48.916;8.990;2023-03-08T06:08:42;5.78;;;5.28;;
12768;SDS011;6448;48.916;8.990;2023-03-08T06:09:43;5.68;;;5.18;;
12768;SDS011;6448;48.916;8.990;2023-03-08T06:10:48;6.00;;;5.50;;
12768;SDS011;6448;48.916;8.990;2023-03-08T06:11:49;6.00;;;5.50;;
12768;SDS011;6448;48.916;8.990;2023-03-08T06:12:51;6.05;;;5.55;;
12768;SDS011;6448;48.916;8.990;2023-03-08T06:13:56;5.60;;;5.20;;
12768;SDS011;6448;48.916;8.990;2023-03-08T06:15:01;5.60;;;5.20;;
12768;SDS011;6448;48.916;8.990;2023-03-08T06:16:06;5.95;;;5.45;;
12768;SDS011;6448;48.916;8.990;2023-03-08T06:17:09;6.10;;;5.60;;
12768;SDS011;6448;48.916;8.990;2023-03-08T06:18:15;6.15;;;5.65;;
12768;SDS011;6448;48.916;8.990;2023-03-08T06:19:18;6.15;;;5.65;;
12768;SDS011;6448;48.916;8.990;2023-03-08T06:20:21;5.32;;;4.93;;
12768;SDS011;6448;48.916;8.990;2023-03-08T06:21:24;5.65;;;5.15;;
12768;SDS011;6448;48.916;8.990;2023-03-08T06:22:32;5.78;;;5.28;;
12768;SDS011;6448;48.916;8.990;2023-03-08T06:23:34;5.57;;;5.07;;
12768;SDS011;6448;48.916;8.990;2023-03-08T06:24:36;6.18;;;5.57;;
12768;SDS011;6448;48.916;8.990;2023-03-08T06:25:42;6.07;;;5.57;;